Time;durP1;ratioP1;P1;durP2;ratioP2;P2;SDS_P1;SDS_P2;PMS_P1;PMS_P2;Temp;Humidity;BMP_temperature;BMP_pressure;BME280_temperature;BME280_humidity;BME280_pressure;Samples;Min_cycle;Max_cycle;Signal;HPM_P1;HPM_P2
2021/12/25 00:00:08;;;;;;;7.30;1.48;;;0.90;99.90;;;;;;4976558;28;20438;-75
2021/12/25 00:02:34;;;;;;;5.43;2.42;;;-0.60;99.90;;;;;;4977198;28;20093;-75
2021/12/25 00:05:01;;;;;;;5.47;1.52;;;-0.60;99.90;;;;;;4993627;28;20057;-75
2021/12/25 00:07:27;;;;;;;4.88;0.98;;;-0.70;99.90;;;;;;4976380;28;20117;-75
2021/12/25 00:09:52;;;;;;;13.40;4.95;;;-0.70;99.90;;;;;;4993552;28;20121;-75
2021/12/25 00:12:18;;;;;;;25.38;6.78;;;0.80;99.90;;;;;;4993372;28;20479;-75
2021/12/25 00:14:43;;;;;;;5.32;0.73;;;-0.10;99.90;;;;;;4993113;28;20050;-75
2021/12/25 00:17:09;;;;;;;4.53;0.75;;;-0.90;99.90;;;;;;4994608;28;20050;-76
2021/12/25 00:19:35;;;;;;;3.50;0.47;;;0.90;99.90;;;;;;4976014;28;20046;-75
2021/12/25 00:22:00;;;;;;;4.22;0.47;;;-1.10;99.90;;;;;;4977245;28;20042;-75
2021/12/25 00:24:26;;;;;;;8.38;0.57;;;0.90;99.90;;;;;;4976540;28;20038;-75
2021/12/25 00:27:00;;;;;;;3.42;0.63;;;-1.00;99.90;;;;;;4992676;28;20149;-76
2021/12/25 00:29:54;;;;;;;6.22;0.52;;;-1.00;99.90;;;;;;4993450;28;20038;-76
2021/12/25 00:34:45;;;;;;;2.30;0.32;;;-1.30;99.90;;;;;;4992327;28;20389;-76
2021/12/25 00:37:11;;;;;;;4.07;0.40;;;-1.10;99.90;;;;;;4994407;28;20117;-75
2021/12/25 00:39:37;;;;;;;4.55;0.60;;;-0.90;99.90;;;;;;4976027;28;20054;-75
2021/12/25 00:42:04;;;;;;;8.93;2.80;;;-1.20;99.90;;;;;;4992129;28;20455;-75
2021/12/25 00:44:30;;;;;;;5.13;2.05;;;-1.20;99.90;;;;;;4992652;28;20050;-76
2021/12/25 00:46:57;;;;;;;8.02;2.03;;;-0.60;99.90;;;;;;4994025;28;20462;-76
2021/12/25 00:49:24;;;;;;;4.18;0.47;;;-1.30;99.90;;;;;;4992713;28;20046;-76
2021/12/25 00:51:50;;;;;;;9.65;2.67;;;-1.30;99.90;;;;;;4992648;28;20129;-75
2021/12/25 00:54:16;;;;;;;5.57;1.38;;;-1.40;99.90;;;;;;4976121;28;20525;-76
2021/12/25 00:56:42;;;;;;;4.63;0.47;;;-1.40;99.90;;;;;;4992660;28;20042;-75
2021/12/25 00:59:08;;;;;;;2.20;0.45;;;-1.50;99.90;;;;;;4976307;28;20406;-76
2021/12/25 01:01:34;;;;;;;4.00;0.65;;;-1.60;99.90;;;;;;4991842;28;20034;-76
2021/12/25 01:04:00;;;;;;;3.95;0.77;;;-1.60;99.90;;;;;;4992801;28;20057;-75
2021/12/25 01:06:25;;;;;;;1.30;0.70;;;-1.90;99.90;;;;;;4992235;28;20026;-76
2021/12/25 01:08:51;;;;;;;2.42;0.30;;;-1.70;99.90;;;;;;4991743;28;20437;-75
2021/12/25 01:11:17;;;;;;;4.72;0.88;;;-1.80;99.90;;;;;;4992213;28;20046;-75
2021/12/25 01:13:49;;;;;;;2.15;0.38;;;-1.10;99.90;;;;;;4976454;28;20042;-75
2021/12/25 01:19:35;;;;;;;5.90;1.83;;;-1.50;99.90;;;;;;4992028;28;20410;-75
2021/12/25 01:37:44;;;;;;;1.85;0.28;;;-2.00;99.90;;;;;;4990657;28;20462;-75
2021/12/25 01:48:19;;;;;;;1.00;0.10;;;-1.80;99.90;;;;;;4983749;28;20057;-75
2021/12/25 01:50:45;;;;;;;2.95;0.45;;;-2.00;99.90;;;;;;4991339;28;20042;-75
2021/12/25 01:53:11;;;;;;;0.52;0.28;;;-2.10;99.90;;;;;;4975710;28;20050;-75
2021/12/25 01:55:36;;;;;;;1.17;0.30;;;-0.70;99.90;;;;;;4990896;28;20498;-75
2021/12/25 01:58:04;;;;;;;3.30;0.20;;;-1.20;99.90;;;;;;4990708;28;20407;-75
2021/12/25 02:00:38;;;;;;;2.60;0.10;;;-1.90;99.90;;;;;;4991221;28;20385;-75
2021/12/25 02:03:08;;;;;;;0.65;0.10;;;-2.00;99.90;;;;;;4974824;28;20498;-75
2021/12/25 02:05:33;;;;;;;0.65;0.20;;;-0.50;99.90;;;;;;4973932;28;20061;-75
2021/12/25 02:07:59;;;;;;;2.88;0.20;;;-3.70;99.90;;;;;;4991406;28;20391;-75
2021/12/25 02:10:25;;;;;;;0.57;0.13;;;0.20;99.90;;;;;;4974961;28;20038;-75
2021/12/25 02:12:51;;;;;;;5.15;0.40;;;-2.20;99.90;;;;;;4974361;28;20053;-75
2021/12/25 02:15:21;;;;;;;2.60;0.50;;;-1.20;99.90;;;;;;5003233;28;20425;-75
2021/12/25 02:18:12;;;;;;;2.75;0.28;;;-2.40;99.90;;;;;;5011845;28;20057;-74
2021/12/25 02:20:45;;;;;;;0.25;0.10;;;-2.40;99.90;;;;;;4987560;28;20620;-74
2021/12/25 02:23:19;;;;;;;2.67;0.43;;;-2.30;99.90;;;;;;4978624;28;20077;-74
2021/12/25 02:25:46;;;;;;;2.35;0.25;;;-2.30;99.90;;;;;;4994553;28;20465;-74
2021/12/25 02:28:13;;;;;;;2.42;0.22;;;-2.40;99.90;;;;;;4993548;28;20053;-74
2021/12/25 02:30:41;;;;;;;4.43;0.20;;;-1.60;99.90;;;;;;5011921;28;20481;-74
2021/12/25 02:33:07;;;;;;;5.15;0.43;;;-1.90;99.90;;;;;;4977297;28;20057;-74
2021/12/25 02:35:33;;;;;;;1.92;0.17;;;-2.20;99.90;;;;;;4977651;28;20077;-74
2021/12/25 02:37:59;;;;;;;4.13;0.75;;;-2.40;99.90;;;;;;4993907;28;20457;-74
2021/12/25 02:40:24;;;;;;;2.40;0.20;;;-2.80;99.90;;;;;;5010991;28;20038;-74
2021/12/25 02:42:50;;;;;;;3.13;0.38;;;0.30;99.90;;;;;;4994009;28;20486;-74
2021/12/25 02:45:18;;;;;;;0.73;0.00;;;-1.50;99.90;;;;;;4993752;28;20117;-75
2021/12/25 02:47:49;;;;;;;0.95;0.15;;;-1.90;99.90;;;;;;4993244;28;20084;-74
2021/12/25 02:50:28;;;;;;;3.45;0.10;;;-2.90;99.90;;;;;;4994462;28;20506;-74
2021/12/25 02:52:55;;;;;;;2.00;0.22;;;-1.30;99.90;;;;;;4994152;28;20052;-74
2021/12/25 02:55:21;;;;;;;7.80;0.30;;;-0.20;99.90;;;;;;4976309;28;20351;-74
2021/12/25 02:57:51;;;;;;;0.75;0.20;;;-2.20;99.90;;;;;;5011767;28;20042;-74
2021/12/25 03:00:23;;;;;;;3.03;0.30;;;-2.70;99.90;;;;;;5003212;28;20490;-74
2021/12/25 03:02:48;;;;;;;5.32;0.55;;;-2.60;99.90;;;;;;4993146;28;20050;-74
2021/12/25 03:05:16;;;;;;;0.80;0.13;;;-0.10;99.90;;;;;;4978123;28;20482;-74
2021/12/25 03:07:42;;;;;;;1.45;0.50;;;-2.40;99.90;;;;;;5011347;28;20046;-74
2021/12/25 03:10:09;;;;;;;1.67;0.20;;;-0.50;99.90;;;;;;4993527;28;20049;-73
2021/12/25 03:12:46;;;;;;;2.33;0.30;;;-2.70;99.90;;;;;;5010907;28;20139;-73
2021/12/25 03:15:16;;;;;;;5.13;0.32;;;-2.70;99.90;;;;;;4979841;28;20046;-73
2021/12/25 03:17:43;;;;;;;2.95;0.32;;;-2.20;99.90;;;;;;5014910;28;20112;-73
2021/12/25 03:20:10;;;;;;;1.92;0.40;;;-2.80;99.90;;;;;;5015213;28;20453;-74
2021/12/25 03:22:37;;;;;;;6.03;1.00;;;-2.70;99.90;;;;;;4996585;28;20077;-74
2021/12/25 03:25:06;;;;;;;1.25;0.20;;;-2.70;99.90;;;;;;4997757;28;20042;-73
2021/12/25 03:27:33;;;;;;;1.63;0.65;;;-0.80;99.90;;;;;;4980907;28;20053;-73
2021/12/25 03:30:00;;;;;;;0.80;0.20;;;-4.60;99.90;;;;;;4996272;28;20405;-74
2021/12/25 03:32:26;;;;;;;2.20;0.10;;;-2.80;99.90;;;;;;5014745;28;20090;-73
2021/12/25 03:34:51;;;;;;;2.03;0.20;;;-2.90;99.90;;;;;;4981267;28;20081;-73
2021/12/25 03:37:17;;;;;;;2.13;0.17;;;-2.90;99.90;;;;;;4972471;28;20129;-74
2021/12/25 03:39:42;;;;;;;0.40;0.10;;;-2.90;99.90;;;;;;4980789;28;20509;-73
2021/12/25 03:42:08;;;;;;;4.22;0.10;;;-3.10;99.90;;;;;;5014964;28;20104;-73
2021/12/25 03:44:35;;;;;;;7.03;0.25;;;-2.90;99.90;;;;;;4995648;28;20037;-73
2021/12/25 03:47:11;;;;;;;0.50;0.20;;;-2.50;99.90;;;;;;4997489;28;20092;-73
2021/12/25 03:53:09;;;;;;;0.63;0.15;;;-2.90;99.90;;;;;;4996777;28;20038;-73
2021/12/25 03:58:03;;;;;;;2.05;0.20;;;-2.60;99.90;;;;;;5013672;28;20049;-73
2021/12/25 04:00:31;;;;;;;5.20;0.30;;;-3.40;99.90;;;;;;4996598;28;20066;-74
2021/12/25 04:03:05;;;;;;;1.10;0.10;;;-0.60;99.90;;;;;;4996934;28;20513;-73
2021/12/25 04:05:33;;;;;;;1.63;0.17;;;-3.30;99.90;;;;;;5013256;28;20041;-74
2021/12/25 04:10:25;;;;;;;3.42;0.10;;;-2.00;99.90;;;;;;4980619;28;20050;-74
2021/12/25 04:12:55;;;;;;;5.35;0.22;;;-3.10;99.90;;;;;;5013354;28;20497;-74
2021/12/25 04:15:21;;;;;;;1.83;0.15;;;-2.20;99.90;;;;;;4979908;28;20046;-74
2021/12/25 04:17:46;;;;;;;1.23;0.28;;;-3.20;99.90;;;;;;4996469;28;20517;-74
2021/12/25 04:20:13;;;;;;;2.85;0.10;;;-3.30;99.90;;;;;;5013415;28;20050;-73
2021/12/25 04:22:46;;;;;;;0.73;0.10;;;-3.40;99.90;;;;;;5013753;28;20128;-74
2021/12/25 04:25:12;;;;;;;1.02;0.10;;;-2.10;99.90;;;;;;4979421;28;20061;-73
2021/12/25 04:27:38;;;;;;;0.28;0.10;;;-3.70;99.90;;;;;;5012658;28;20053;-74
2021/12/25 04:30:18;;;;;;;1.42;0.10;;;-3.50;99.90;;;;;;5013891;28;20084;-73
2021/12/25 04:49:28;;;;;;;1.58;0.22;;;-3.40;99.90;;;;;;5013527;28;20710;-74
2021/12/25 05:03:16;;;;;;;2.28;0.30;;;-3.50;99.90;;;;;;4995239;28;20045;-73
2021/12/25 05:05:42;;;;;;;1.17;0.10;;;-3.40;99.90;;;;;;5008030;28;20061;-73
2021/12/25 05:08:08;;;;;;;0.38;0.10;;;-2.30;99.90;;;;;;5012381;28;20125;-73
2021/12/25 05:10:34;;;;;;;0.77;0.20;;;-3.60;99.90;;;;;;4994984;28;20121;-73
2021/12/25 05:13:00;;;;;;;3.72;0.40;;;-3.70;99.90;;;;;;4995485;28;20046;-73
2021/12/25 05:15:26;;;;;;;0.40;0.10;;;-3.50;99.90;;;;;;4977816;28;20053;-74
2021/12/25 05:17:52;;;;;;;2.50;0.10;;;-3.60;99.90;;;;;;4979071;28;20064;-73
2021/12/25 05:20:18;;;;;;;2.55;0.40;;;-3.70;99.90;;;;;;4995219;28;20049;-73
2021/12/25 05:22:44;;;;;;;2.47;0.20;;;-3.70;99.90;;;;;;5012499;28;20517;-74
2021/12/25 05:25:11;;;;;;;0.30;0.10;;;-3.70;99.90;;;;;;4995339;28;20046;-73
2021/12/25 05:27:37;;;;;;;0.00;0.00;;;-3.60;99.90;;;;;;5011998;28;20375;-74
2021/12/25 05:30:04;;;;;;;0.38;0.05;;;-3.60;99.90;;;;;;5012224;28;20041;-73
2021/12/25 05:32:30;;;;;;;2.00;0.60;;;-3.70;99.90;;;;;;5012535;28;20048;-74
2021/12/25 05:34:55;;;;;;;0.17;0.00;;;-3.80;99.90;;;;;;4995126;28;20049;-74
2021/12/25 05:37:21;;;;;;;0.25;0.20;;;-3.90;99.90;;;;;;5011343;28;20073;-73
2021/12/25 05:39:50;;;;;;;1.42;0.85;;;-3.80;99.90;;;;;;5012582;28;20096;-73
2021/12/25 05:42:22;;;;;;;1.45;0.15;;;-3.70;99.90;;;;;;4978937;28;20069;-74
2021/12/25 05:44:48;;;;;;;0.77;0.20;;;-3.80;99.90;;;;;;5012087;28;20045;-73
2021/12/25 05:47:15;;;;;;;0.28;0.10;;;-4.10;99.90;;;;;;4978628;28;20049;-74
2021/12/25 05:49:40;;;;;;;1.05;0.10;;;-3.80;99.90;;;;;;4994616;28;20046;-73
2021/12/25 05:52:06;;;;;;;1.60;0.08;;;-4.00;99.90;;;;;;5011989;28;20375;-74
2021/12/25 05:54:33;;;;;;;3.08;0.30;;;-4.10;99.90;;;;;;4994262;28;20498;-74
2021/12/25 05:56:58;;;;;;;1.20;0.00;;;-3.90;99.90;;;;;;5011867;28;20044;-73
2021/12/25 05:59:24;;;;;;;1.27;0.20;;;-4.00;99.90;;;;;;5011708;28;20482;-74
2021/12/25 06:01:49;;;;;;;4.22;0.38;;;-2.70;99.90;;;;;;4995576;28;20103;-74
2021/12/25 06:04:15;;;;;;;6.13;0.20;;;-4.10;99.90;;;;;;4993913;28;20605;-73
2021/12/25 06:06:41;;;;;;;1.77;0.10;;;-4.00;99.90;;;;;;5012143;28;20037;-73
2021/12/25 06:09:09;;;;;;;1.80;0.05;;;-1.90;99.90;;;;;;4994361;28;20081;-74
2021/12/25 06:11:39;;;;;;;2.67;0.20;;;-4.20;99.90;;;;;;4993274;28;20103;-74
2021/12/25 06:14:10;;;;;;;1.85;0.10;;;-4.10;99.90;;;;;;4978324;28;20394;-73
2021/12/25 06:16:38;;;;;;;1.35;0.10;;;-4.20;99.90;;;;;;4994429;28;20060;-74
2021/12/25 06:19:04;;;;;;;0.35;0.10;;;-2.90;99.90;;;;;;4993521;28;20049;-73
2021/12/25 06:21:31;;;;;;;1.13;0.10;;;-4.20;99.90;;;;;;4993945;28;20049;-73
2021/12/25 06:23:57;;;;;;;1.83;0.30;;;-4.00;99.90;;;;;;4994281;28;20128;-73
2021/12/25 06:26:22;;;;;;;0.70;0.15;;;-3.40;99.90;;;;;;5010671;28;20109;-73
2021/12/25 06:28:48;;;;;;;0.93;0.10;;;-4.30;99.90;;;;;;5011713;28;20145;-74
2021/12/25 06:31:14;;;;;;;0.65;0.20;;;-4.30;99.90;;;;;;4994900;28;20049;-73
2021/12/25 06:33:39;;;;;;;3.13;0.43;;;-4.20;99.90;;;;;;5010828;28;20049;-73
2021/12/25 06:36:05;;;;;;;1.17;0.60;;;-4.40;99.90;;;;;;5011808;28;20037;-74
2021/12/25 06:38:32;;;;;;;2.08;0.25;;;-4.20;99.90;;;;;;5010990;28;20041;-73
2021/12/25 06:40:57;;;;;;;3.10;0.30;;;-4.30;99.90;;;;;;5010955;28;20042;-73
2021/12/25 06:43:23;;;;;;;1.65;0.30;;;-4.30;99.90;;;;;;4993969;28;20048;-73
2021/12/25 06:45:49;;;;;;;0.60;0.28;;;-4.20;99.90;;;;;;4994675;28;20046;-73
2021/12/25 06:48:16;;;;;;;3.13;0.10;;;;;;;;;;4993552;28;20058;-73
2021/12/25 06:50:41;;;;;;;2.60;0.32;;;-4.30;99.90;;;;;;4998483;28;20095;-73
2021/12/25 06:53:07;;;;;;;2.20;0.20;;;-4.30;99.90;;;;;;5015470;28;20058;-73
2021/12/25 06:55:32;;;;;;;1.45;0.20;;;-4.40;99.90;;;;;;4997169;28;20050;-73
2021/12/25 06:57:59;;;;;;;3.22;0.30;;;-4.00;99.90;;;;;;4997984;28;20085;-73
2021/12/25 07:00:27;;;;;;;3.83;0.20;;;-4.40;99.90;;;;;;4996481;28;20484;-73
2021/12/25 07:02:52;;;;;;;2.90;0.20;;;-4.50;99.90;;;;;;4998333;28;20058;-73
2021/12/25 07:05:18;;;;;;;0.70;0.25;;;-4.40;99.90;;;;;;5014877;28;20054;-73
2021/12/25 07:07:44;;;;;;;0.75;0.10;;;-4.40;99.90;;;;;;4981084;28;20041;-73
2021/12/25 07:10:10;;;;;;;0.35;0.10;;;-4.50;99.90;;;;;;4998055;28;20136;-73
2021/12/25 07:12:37;;;;;;;1.85;0.10;;;-4.40;99.90;;;;;;4981298;28;20049;-73
2021/12/25 07:15:07;;;;;;;1.23;0.17;;;-3.10;99.90;;;;;;5014523;28;20062;-73
2021/12/25 07:17:33;;;;;;;0.85;0.10;;;-4.20;99.90;;;;;;4980584;28;20041;-73
2021/12/25 07:19:59;;;;;;;4.72;0.10;;;-4.30;99.90;;;;;;5015493;28;20144;-73
2021/12/25 07:22:25;;;;;;;1.95;0.10;;;-4.30;99.90;;;;;;5014249;28;20471;-73
2021/12/25 07:24:51;;;;;;;0.38;0.15;;;-4.20;99.90;;;;;;5015199;28;20046;-73
2021/12/25 07:27:16;;;;;;;2.08;0.40;;;-4.50;99.90;;;;;;4996874;28;20048;-73
2021/12/25 07:29:42;;;;;;;3.15;0.25;;;-4.40;99.90;;;;;;4980555;28;20124;-73
2021/12/25 07:32:08;;;;;;;1.67;0.10;;;-4.70;99.90;;;;;;4997479;28;20104;-73
2021/12/25 07:34:33;;;;;;;0.85;0.22;;;-6.40;99.90;;;;;;4996756;28;20050;-73
2021/12/25 07:37:00;;;;;;;0.40;0.40;;;-4.40;99.90;;;;;;4996650;28;20073;-73
2021/12/25 07:39:26;;;;;;;1.50;0.20;;;-4.60;99.90;;;;;;4980830;28;20044;-73
2021/12/25 07:41:52;;;;;;;7.03;0.30;;;-4.50;99.90;;;;;;4997479;28;20053;-73
2021/12/25 07:44:17;;;;;;;6.72;0.50;;;-4.40;99.90;;;;;;4995879;28;20482;-73
2021/12/25 07:46:45;;;;;;;0.75;0.20;;;-3.80;99.90;;;;;;4997357;28;20080;-73
2021/12/25 07:49:16;;;;;;;1.95;0.30;;;-4.60;99.90;;;;;;4997182;28;20069;-73
2021/12/25 07:51:42;;;;;;;0.77;0.35;;;-4.50;99.90;;;;;;4980463;28;20052;-73
2021/12/25 07:54:09;;;;;;;2.38;0.13;;;-4.50;99.90;;;;;;4997361;28;20457;-73
2021/12/25 07:56:35;;;;;;;2.85;0.30;;;-3.30;99.90;;;;;;4995644;28;20128;-73
2021/12/25 07:59:00;;;;;;;3.20;0.20;;;-1.80;99.90;;;;;;4996698;28;20229;-73
2021/12/25 08:01:26;;;;;;;0.77;0.40;;;-4.50;99.90;;;;;;4996358;28;20109;-73
2021/12/25 08:03:51;;;;;;;1.05;0.28;;;-4.50;99.90;;;;;;5013769;28;20464;-73
2021/12/25 08:06:17;;;;;;;6.22;0.43;;;-4.60;99.90;;;;;;5014136;28;20050;-73
2021/12/25 08:08:43;;;;;;;5.63;0.25;;;-4.60;99.90;;;;;;4996773;28;20096;-72
2021/12/25 08:11:09;;;;;;;0.80;0.10;;;-4.60;99.90;;;;;;5013347;28;20077;-73
2021/12/25 08:13:34;;;;;;;0.73;0.35;;;-4.40;99.90;;;;;;4996438;28;20061;-73
2021/12/25 08:16:00;;;;;;;0.45;0.15;;;-4.50;99.90;;;;;;4996743;28;20053;-73
2021/12/25 08:18:25;;;;;;;0.75;0.10;;;-3.40;99.90;;;;;;5004648;28;20068;-73
2021/12/25 08:20:51;;;;;;;1.25;0.10;;;-4.50;99.90;;;;;;4996820;28;20502;-72
2021/12/25 08:23:17;;;;;;;1.20;0.10;;;-4.50;99.90;;;;;;4996300;28;20088;-72
2021/12/25 08:25:43;;;;;;;4.25;0.20;;;-4.40;99.90;;;;;;5013430;28;20512;-72
2021/12/25 08:28:09;;;;;;;2.28;0.20;;;-4.50;99.90;;;;;;5013593;28;20144;-73
2021/12/25 08:30:35;;;;;;;1.35;0.28;;;-4.50;99.90;;;;;;4979854;28;20120;-72
2021/12/25 08:33:00;;;;;;;2.45;0.30;;;-4.40;99.90;;;;;;5013296;28;20046;-73
2021/12/25 08:35:28;;;;;;;2.40;0.10;;;-4.40;99.90;;;;;;4996030;28;20420;-72
2021/12/25 08:37:54;;;;;;;1.95;0.20;;;-4.50;99.90;;;;;;5013764;28;20112;-73
2021/12/25 08:40:20;;;;;;;3.38;0.20;;;-4.40;99.90;;;;;;5012918;28;20069;-73
2021/12/25 08:42:51;;;;;;;1.67;0.28;;;-4.40;99.90;;;;;;4996423;28;20046;-72
2021/12/25 08:45:39;;;;;;;2.55;0.20;;;-4.10;99.90;;;;;;4996848;28;20103;-72
2021/12/25 08:48:09;;;;;;;1.02;0.13;;;-4.50;99.90;;;;;;4996010;28;20046;-73
2021/12/25 08:50:35;;;;;;;3.60;0.08;;;-4.30;99.90;;;;;;5013094;28;20045;-72
2021/12/25 08:53:00;;;;;;;2.92;0.40;;;-4.20;99.90;;;;;;5013150;28;20368;-72
2021/12/25 08:55:26;;;;;;;4.90;1.70;;;-4.20;99.90;;;;;;4995073;28;20371;-72
2021/12/25 08:57:52;;;;;;;4.35;0.43;;;-4.20;99.90;;;;;;4995619;28;20046;-72
2021/12/25 09:00:19;;;;;;;9.75;3.30;;;-4.30;99.90;;;;;;4994509;28;20050;-72
2021/12/25 09:02:46;;;;;;;67.20;28.42;;;-4.40;99.90;;;;;;4995949;28;20065;-72
2021/12/25 09:05:11;;;;;;;5.45;2.70;;;-4.30;99.90;;;;;;5013267;28;20057;-72
2021/12/25 09:07:37;;;;;;;5.53;1.70;;;-4.20;99.90;;;;;;4994599;28;20469;-73
2021/12/25 09:10:03;;;;;;;9.82;4.10;;;-4.20;99.90;;;;;;5013281;28;20133;-72
2021/12/25 09:12:29;;;;;;;11.82;6.00;;;-4.20;99.90;;;;;;4994406;28;20042;-72
2021/12/25 09:14:55;;;;;;;4.55;1.98;;;-4.10;99.90;;;;;;5012396;28;20557;-72
2021/12/25 09:17:20;;;;;;;4.20;1.60;;;-4.00;99.90;;;;;;4994651;28;20549;-73
2021/12/25 09:19:46;;;;;;;4.60;3.13;;;-4.20;99.90;;;;;;4995638;28;20045;-73
2021/12/25 09:22:12;;;;;;;3.20;1.17;;;-4.20;99.90;;;;;;5012410;28;20125;-72
2021/12/25 09:24:39;;;;;;;14.80;9.95;;;-4.10;99.90;;;;;;5012373;28;20053;-72
2021/12/25 09:27:06;;;;;;;5.53;2.42;;;-4.10;99.90;;;;;;4995120;28;20045;-72
2021/12/25 09:29:33;;;;;;;5.50;2.47;;;-4.10;99.90;;;;;;5011684;28;20379;-73
2021/12/25 09:31:59;;;;;;;5.72;3.45;;;-3.10;99.90;;;;;;5013225;28;20049;-73
2021/12/25 09:34:24;;;;;;;13.88;7.68;;;-4.00;99.90;;;;;;4994599;28;20044;-73
2021/12/25 09:36:50;;;;;;;4.00;0.85;;;-3.90;99.90;;;;;;5012148;28;20092;-72
2021/12/25 09:39:16;;;;;;;6.38;1.02;;;-4.20;99.90;;;;;;5012153;28;20057;-72
2021/12/25 09:41:42;;;;;;;5.90;2.90;;;-4.00;99.90;;;;;;4994921;28;20056;-72
2021/12/25 09:44:08;;;;;;;2.35;0.70;;;-4.00;99.90;;;;;;5011885;28;20046;-72
2021/12/25 09:46:34;;;;;;;4.18;0.98;;;-2.80;99.90;;;;;;4994453;28;20077;-73
2021/12/25 09:49:01;;;;;;;2.92;0.50;;;-3.90;99.90;;;;;;4994075;28;20068;-72
2021/12/25 09:51:27;;;;;;;1.75;0.52;;;-4.00;99.90;;;;;;4994406;28;20056;-72
2021/12/25 09:54:08;;;;;;;2.33;0.40;;;-3.00;99.90;;;;;;4994798;28;20046;-73
2021/12/25 09:56:37;;;;;;;3.25;1.05;;;-3.70;99.90;;;;;;5011325;28;20048;-73
2021/12/25 09:59:06;;;;;;;3.25;1.13;;;-3.70;99.90;;;;;;5012079;28;20061;-72
2021/12/25 10:01:41;;;;;;;2.22;0.40;;;-2.50;99.90;;;;;;4994482;28;20045;-72
2021/12/25 10:04:09;;;;;;;4.40;0.73;;;-3.50;99.90;;;;;;5011752;28;20061;-72
2021/12/25 10:06:45;;;;;;;2.95;0.65;;;-3.60;99.90;;;;;;5011703;28;20453;-72
2021/12/25 10:09:13;;;;;;;5.60;1.05;;;-3.50;99.90;;;;;;4994696;28;20060;-73
2021/12/25 10:12:06;;;;;;;1.83;0.25;;;-3.60;99.90;;;;;;4986007;28;20050;-73
2021/12/25 10:14:32;;;;;;;0.65;0.17;;;-3.40;99.90;;;;;;5011342;28;20054;-72
2021/12/25 10:16:58;;;;;;;1.25;0.73;;;-3.60;99.90;;;;;;5011776;28;20081;-72
2021/12/25 10:19:31;;;;;;;4.25;0.50;;;-3.60;99.90;;;;;;4993533;28;20474;-72
2021/12/25 10:22:06;;;;;;;4.13;0.63;;;-2.40;99.90;;;;;;4994535;28;20054;-72
2021/12/25 10:24:38;;;;;;;4.93;1.23;;;-3.40;99.90;;;;;;5009823;28;20053;-72
2021/12/25 10:27:14;;;;;;;1.58;1.13;;;-3.40;99.90;;;;;;4994301;28;20056;-72
2021/12/25 10:29:40;;;;;;;1.25;0.22;;;-3.40;99.90;;;;;;5003361;28;20049;-72
2021/12/25 10:32:21;;;;;;;1.80;0.63;;;-3.90;99.90;;;;;;5011131;28;20053;-72
2021/12/25 10:34:48;;;;;;;3.80;0.25;;;-3.30;99.90;;;;;;5005043;28;20042;-72
2021/12/25 10:37:16;;;;;;;4.70;0.30;;;-3.30;99.90;;;;;;5011687;28;20078;-72
2021/12/25 10:39:43;;;;;;;4.78;0.28;;;-3.40;99.90;;;;;;5018842;28;20050;-72
2021/12/25 10:42:18;;;;;;;1.48;0.40;;;-3.30;99.90;;;;;;4994253;28;20055;-73
2021/12/25 10:44:48;;;;;;;2.70;0.30;;;-3.20;99.90;;;;;;5003881;28;20046;-73
2021/12/25 10:47:17;;;;;;;2.78;0.38;;;-3.10;99.90;;;;;;4993296;28;20256;-73
2021/12/25 10:49:49;;;;;;;6.13;0.30;;;-2.30;99.90;;;;;;4986459;28;20456;-73
2021/12/25 10:52:16;;;;;;;2.67;0.30;;;-3.10;99.90;;;;;;5011641;28;20397;-73
2021/12/25 10:54:46;;;;;;;1.25;0.52;;;-3.10;99.90;;;;;;5018931;28;20045;-73
2021/12/25 10:57:29;;;;;;;0.75;0.30;;;-3.00;99.90;;;;;;5011355;28;20049;-73
2021/12/25 10:59:54;;;;;;;0.98;0.20;;;-2.40;99.90;;;;;;5004841;28;20034;-73
2021/12/25 11:02:31;;;;;;;2.92;0.38;;;-3.00;99.90;;;;;;5011096;28;20504;-73
2021/12/25 11:04:58;;;;;;;3.20;0.17;;;-1.60;99.90;;;;;;4994009;28;20077;-73
2021/12/25 11:07:25;;;;;;;3.60;0.28;;;-2.10;99.90;;;;;;5010118;28;20096;-73
2021/12/25 11:10:09;;;;;;;2.83;0.70;;;-2.80;99.90;;;;;;5011567;28;20046;-73
2021/12/25 11:12:35;;;;;;;2.60;0.50;;;-2.70;99.90;;;;;;4993532;28;20037;-73
2021/12/25 11:15:14;;;;;;;1.05;0.63;;;-2.70;99.90;;;;;;4992959;28;20046;-73
2021/12/25 11:17:42;;;;;;;2.08;0.70;;;-2.70;99.90;;;;;;5010643;28;20057;-73
2021/12/25 11:20:17;;;;;;;1.60;0.32;;;-2.70;99.90;;;;;;4994158;28;20077;-73
2021/12/25 11:22:51;;;;;;;2.60;0.50;;;-2.50;99.90;;;;;;4993226;28;20489;-73
2021/12/25 11:25:19;;;;;;;2.35;0.75;;;-2.60;99.90;;;;;;4993455;28;20038;-73
2021/12/25 11:27:46;;;;;;;6.07;0.60;;;-2.50;99.90;;;;;;5002688;28;20060;-73
2021/12/25 11:30:12;;;;;;;2.00;0.47;;;-2.70;99.90;;;;;;4994030;28;20125;-73
2021/12/25 11:32:38;;;;;;;2.67;0.30;;;-2.60;99.90;;;;;;4991718;28;20141;-73
2021/12/25 11:35:04;;;;;;;1.42;0.77;;;-1.80;99.90;;;;;;5002533;28;20642;-72
2021/12/25 11:37:29;;;;;;;3.95;0.50;;;-2.60;99.90;;;;;;5013533;28;20048;-73
2021/12/25 11:39:55;;;;;;;3.85;0.40;;;-2.50;99.90;;;;;;5014769;28;20041;-74
2021/12/25 11:42:26;;;;;;;5.15;0.38;;;-2.50;99.90;;;;;;5013659;28;20038;-74
2021/12/25 11:44:54;;;;;;;2.35;0.47;;;-2.30;99.90;;;;;;5007312;28;20046;-73
2021/12/25 11:47:39;;;;;;;2.92;0.20;;;-2.60;99.90;;;;;;5013368;28;20042;-74
2021/12/25 11:50:17;;;;;;;5.82;0.90;;;-2.60;99.90;;;;;;5015165;28;20105;-75
2021/12/25 11:53:08;;;;;;;3.67;1.02;;;-2.50;99.90;;;;;;4996386;28;20549;-75
2021/12/25 11:58:20;;;;;;;5.07;2.28;;;-2.50;99.90;;;;;;4993953;28;20066;-74
2021/12/25 12:00:51;;;;;;;7.93;3.83;;;-2.60;99.90;;;;;;4995239;28;20486;-74
2021/12/25 12:03:41;;;;;;;3.03;0.90;;;-2.40;99.90;;;;;;5006817;28;20030;-73
2021/12/25 12:06:07;;;;;;;2.35;0.85;;;-2.40;99.90;;;;;;4994097;28;20052;-72
2021/12/25 12:08:55;;;;;;;2.20;1.60;;;-2.50;99.90;;;;;;5025064;28;20041;-73
2021/12/25 12:11:22;;;;;;;1.83;0.40;;;-2.60;99.90;;;;;;4992258;28;20490;-72
2021/12/25 12:14:11;;;;;;;;;;;-2.50;99.90;;;;;;4491744;28;10001762;-73
2021/12/25 12:16:52;;;;;;;3.60;0.30;;;-2.50;99.90;;;;;;5009697;28;20097;-76
2021/12/25 12:19:32;;;;;;;3.08;0.70;;;-2.30;99.90;;;;;;4999829;28;20042;-76
2021/12/25 12:22:01;;;;;;;2.70;0.65;;;-3.10;99.90;;;;;;4996967;28;20494;-74
2021/12/25 12:27:05;;;;;;;7.20;0.80;;;-2.30;99.90;;;;;;5022752;28;20108;-73
2021/12/25 12:29:45;;;;;;;1.20;0.22;;;-2.30;99.90;;;;;;5035547;28;20092;-74
2021/12/25 12:32:20;;;;;;;1.95;0.20;;;-1.10;99.90;;;;;;4674805;28;9999724;-74
2021/12/25 12:34:51;;;;;;;0.98;0.20;;;-1.30;99.90;;;;;;4992863;28;20050;-75
2021/12/25 12:37:16;;;;;;;2.88;0.52;;;-1.80;99.90;;;;;;5019519;28;20058;-73
2021/12/25 12:39:55;;;;;;;4.10;0.43;;;0.10;99.90;;;;;;4993201;28;20092;-72
2021/12/25 12:42:59;;;;;;;1.38;0.32;;;-4.60;99.90;;;;;;4995078;28;20069;-73
2021/12/25 12:45:27;;;;;;;1.75;0.30;;;-2.30;99.90;;;;;;4948511;28;20050;-73
2021/12/25 12:48:11;;;;;;;2.05;0.30;;;-0.10;99.90;;;;;;5001494;28;20128;-74
2021/12/25 12:50:40;;;;;;;3.58;0.55;;;-2.20;99.90;;;;;;4982932;28;20405;-73
2021/12/25 12:53:09;;;;;;;4.68;0.75;;;-2.30;99.90;;;;;;4993067;28;20088;-74
2021/12/25 12:55:37;;;;;;;1.92;0.35;;;-2.10;99.90;;;;;;4975229;28;20054;-74
2021/12/25 12:58:19;;;;;;;1.02;0.25;;;-1.30;99.90;;;;;;4975541;28;20050;-73
2021/12/25 13:00:55;;;;;;;1.40;0.40;;;-2.30;99.90;;;;;;5001404;28;20052;-74
2021/12/25 13:03:21;;;;;;;0.40;0.25;;;-2.00;99.90;;;;;;4987967;28;20121;-73
2021/12/25 13:05:55;;;;;;;1.20;0.38;;;-2.20;99.90;;;;;;5011305;28;20050;-74
2021/12/25 13:08:34;;;;;;;4.25;0.98;;;-2.10;99.90;;;;;;4994101;28;20446;-72
2021/12/25 13:11:14;;;;;;;2.03;1.48;;;-2.20;99.90;;;;;;5007969;28;20049;-74
2021/12/25 13:13:50;;;;;;;5.28;0.80;;;-2.60;99.90;;;;;;5026407;28;20092;-74
2021/12/25 13:16:16;;;;;;;3.65;0.50;;;-2.50;99.90;;;;;;4998696;28;20549;-73
2021/12/25 13:18:53;;;;;;;4.50;0.68;;;-2.20;99.90;;;;;;5028406;28;20052;-73
2021/12/25 13:21:24;;;;;;;4.40;0.40;;;-2.30;99.90;;;;;;4998711;28;20088;-74
2021/12/25 13:23:55;;;;;;;3.35;0.38;;;-2.20;99.90;;;;;;5029280;28;20042;-76
2021/12/25 13:26:37;;;;;;;3.40;0.80;;;-2.20;99.90;;;;;;5018163;28;20037;-73
2021/12/25 13:29:06;;;;;;;1.67;0.55;;;-2.10;99.90;;;;;;5013506;28;20057;-74
2021/12/25 13:31:36;;;;;;;2.53;0.85;;;-0.20;99.90;;;;;;4992065;28;20058;-73
2021/12/25 13:34:13;;;;;;;3.10;0.40;;;-1.00;99.90;;;;;;5010194;28;20046;-73
2021/12/25 13:36:41;;;;;;;1.92;0.30;;;-1.60;99.90;;;;;;4991697;28;20490;-74
2021/12/25 13:39:13;;;;;;;0.77;0.30;;;-2.50;99.90;;;;;;4992814;28;20053;-73
2021/12/25 13:41:42;;;;;;;4.63;0.82;;;-2.20;99.90;;;;;;5009218;28;20058;-74
2021/12/25 13:44:13;;;;;;;2.08;0.73;;;-2.10;99.90;;;;;;4996347;28;20068;-73
2021/12/25 13:46:50;;;;;;;15.40;4.85;;;-2.00;99.90;;;;;;5012412;28;20050;-73
2021/12/25 13:49:31;;;;;;;3.85;1.23;;;-2.10;99.90;;;;;;4989905;28;20058;-73
2021/12/25 13:51:59;;;;;;;1.27;0.82;;;-2.10;99.90;;;;;;4976540;28;20046;-73
2021/12/25 13:54:25;;;;;;;2.58;1.08;;;-2.10;99.90;;;;;;4995832;28;20092;-74
2021/12/25 13:56:54;;;;;;;0.93;0.55;;;-2.10;99.90;;;;;;4989365;28;20082;-74
2021/12/25 13:59:20;;;;;;;6.28;0.60;;;-2.10;99.90;;;;;;4991425;28;20046;-74
2021/12/25 14:01:56;;;;;;;2.85;1.63;;;-2.40;99.90;;;;;;4993058;28;20693;-73
2021/12/25 14:04:21;;;;;;;4.00;1.92;;;-2.20;99.90;;;;;;4991593;28;20093;-74
2021/12/25 14:06:48;;;;;;;6.40;3.40;;;-2.20;99.90;;;;;;4989073;28;20053;-73